createdAt,value
2023-03-06T00:01:02.924Z,2.04
2023-03-06T00:03:30.450Z,2.03
2023-03-06T00:05:58.439Z,2.07
2023-03-06T00:08:28.260Z,2.06
2023-03-06T00:10:57.531Z,1.96
2023-03-06T00:13:26.615Z,2.07
2023-03-06T00:15:55.156Z,2.21
2023-03-06T00:18:23.449Z,2.26
2023-03-06T00:20:51.265Z,2.36
2023-03-06T00:23:20.543Z,2.38
2023-03-06T00:25:48.601Z,2.44
2023-03-06T00:28:18.069Z,2.50
2023-03-06T00:30:47.956Z,2.57
2023-03-06T00:33:16.205Z,2.74
2023-03-06T00:35:44.916Z,2.83
2023-03-06T00:38:14.580Z,2.92
2023-03-06T00:40:42.289Z,2.94
2023-03-06T00:43:11.952Z,3.02
2023-03-06T00:45:39.440Z,3.01
2023-03-06T00:48:11.013Z,3.05
2023-03-06T00:50:41.106Z,3.03
2023-03-06T00:53:11.579Z,2.95
2023-03-06T00:55:40.747Z,2.93
2023-03-06T00:58:07.991Z,2.89
2023-03-06T01:00:35.773Z,2.79
2023-03-06T01:03:03.501Z,2.72
2023-03-06T01:05:37.239Z,2.78
2023-03-06T01:08:08.486Z,2.81
2023-03-06T01:10:40.746Z,2.79
2023-03-06T01:13:09.895Z,2.82
2023-03-06T01:15:40.199Z,2.84
2023-03-06T01:18:09.063Z,2.79
2023-03-06T01:20:37.647Z,2.78
2023-03-06T01:23:05.942Z,2.75
2023-03-06T01:25:33.644Z,2.74
2023-03-06T01:28:01.864Z,2.72
2023-03-06T01:30:29.680Z,2.74
2023-03-06T01:32:59.026Z,2.73
2023-03-06T01:35:26.452Z,2.70
2023-03-06T01:37:54.526Z,2.71
2023-03-06T01:40:21.852Z,2.74
2023-03-06T01:42:52.219Z,2.70
2023-03-06T01:45:23.310Z,2.61
2023-03-06T01:47:53.272Z,2.56
2023-03-06T01:50:23.110Z,2.58
2023-03-06T01:52:58.211Z,2.57
2023-03-06T01:55:33.464Z,2.43
2023-03-06T01:58:07.811Z,2.53
2023-03-06T02:00:36.488Z,2.64
2023-03-06T02:03:15.410Z,2.66
2023-03-06T02:05:46.115Z,2.78
2023-03-06T02:08:19.549Z,2.85
2023-03-06T02:11:15.351Z,2.86
2023-03-06T02:13:44.534Z,3.01
2023-03-06T02:16:13.747Z,3.05
2023-03-06T02:18:43.869Z,3.12
2023-03-06T02:21:20.630Z,3.12
2023-03-06T02:23:56.407Z,3.18
2023-03-06T02:26:27.083Z,3.23
2023-03-06T02:28:57.423Z,3.07
2023-03-06T02:31:32.045Z,3.03
2023-03-06T02:34:16.927Z,3.14
2023-03-06T02:36:51.865Z,3.09
2023-03-06T02:39:24.464Z,3.12
2023-03-06T02:41:52.402Z,3.16
2023-03-06T02:44:23.272Z,3.16
2023-03-06T02:46:51.632Z,3.18
2023-03-06T02:49:20.787Z,3.00
2023-03-06T02:51:49.489Z,2.91
2023-03-06T02:54:19.963Z,2.84
2023-03-06T02:56:47.492Z,2.76
2023-03-06T02:59:16.959Z,2.78
2023-03-06T03:01:47.984Z,2.77
2023-03-06T03:04:16.469Z,2.79
2023-03-06T03:06:47.478Z,2.80
2023-03-06T03:09:17.066Z,2.88
2023-03-06T03:11:46.067Z,2.85
2023-03-06T03:14:16.546Z,2.70
2023-03-06T03:16:46.406Z,2.77
2023-03-06T03:19:15.229Z,2.86
2023-03-06T03:21:50.439Z,2.81
2023-03-06T03:24:27.589Z,2.75
2023-03-06T03:27:00.501Z,2.75
2023-03-06T03:29:38.872Z,2.83
2023-03-06T03:32:09.175Z,2.85
2023-03-06T03:34:41.687Z,3.04
2023-03-06T03:37:10.678Z,3.16
2023-03-06T03:39:45.656Z,3.24
2023-03-06T03:42:24.089Z,3.26
2023-03-06T03:45:15.256Z,3.42
2023-03-06T03:47:48.766Z,3.51
2023-03-06T03:50:37.447Z,3.28
2023-03-06T03:53:27.794Z,3.30
2023-03-06T03:56:01.627Z,3.66
2023-03-06T03:59:05.295Z,3.69
2023-03-06T04:01:46.660Z,3.61
2023-03-06T04:04:31.834Z,3.67
2023-03-06T04:07:23.635Z,3.64
2023-03-06T04:10:34.485Z,3.81
2023-03-06T04:14:03.747Z,3.84
2023-03-06T04:17:00.389Z,3.92
2023-03-06T04:19:40.140Z,4.14
2023-03-06T04:22:20.321Z,4.27
2023-03-06T04:25:27.938Z,4.29
2023-03-06T04:29:11.049Z,4.16
2023-03-06T04:32:10.630Z,3.96
2023-03-06T04:35:41.648Z,4.33
2023-03-06T04:39:00.042Z,4.55
2023-03-06T04:42:10.128Z,4.68
2023-03-06T04:45:31.074Z,4.68
2023-03-06T04:48:23.562Z,4.64
2023-03-06T04:51:47.606Z,4.62
2023-03-06T04:55:12.093Z,4.48
2023-03-06T04:58:22.532Z,4.37
2023-03-06T05:01:51.177Z,4.36
2023-03-06T05:05:31.993Z,4.40
2023-03-06T05:08:49.604Z,4.40
2023-03-06T05:12:04.685Z,4.38
2023-03-06T05:15:38.045Z,4.43
2023-03-06T05:19:13.122Z,4.29
2023-03-06T05:23:01.878Z,4.37
2023-03-06T05:27:15.804Z,4.32
2023-03-06T05:31:32.127Z,4.29
2023-03-06T05:35:56.750Z,4.08
2023-03-06T05:40:08.310Z,4.09
2023-03-06T05:44:00.582Z,4.06
2023-03-06T05:52:35.398Z,4.11
2023-03-06T06:01:12.115Z,4.23
2023-03-06T06:05:26.332Z,4.34
2023-03-06T06:09:23.228Z,4.35
2023-03-06T06:12:49.352Z,4.47
2023-03-06T06:15:44.186Z,4.55
2023-03-06T06:19:34.271Z,4.58
2023-03-06T06:22:38.874Z,4.67
2023-03-06T06:34:29.230Z,4.63
2023-03-06T06:38:09.327Z,4.60
2023-03-06T06:42:28.003Z,4.51
2023-03-06T07:03:04.781Z,4.98
2023-03-06T08:01:56.362Z,5.63
2023-03-06T08:06:11.674Z,5.48
2023-03-06T08:10:32.037Z,5.64
2023-03-06T08:30:16.167Z,6.77
2023-03-06T08:34:50.125Z,6.71
2023-03-06T08:39:23.953Z,6.38
2023-03-06T08:43:16.509Z,6.33
2023-03-06T08:47:22.838Z,6.46
2023-03-06T09:13:45.289Z,6.66
2023-03-06T09:17:57.349Z,5.76
2023-03-06T09:41:28.460Z,6.90
2023-03-06T09:49:59.892Z,6.05
2023-03-06T09:54:35.477Z,6.47
2023-03-06T09:58:48.790Z,6.51
2023-03-06T10:02:43.578Z,6.90
2023-03-06T10:06:35.371Z,7.14
2023-03-06T10:10:25.510Z,7.42
2023-03-06T10:14:09.731Z,7.13
2023-03-06T10:18:25.559Z,6.78
2023-03-06T10:22:35.324Z,7.03
2023-03-06T10:34:25.518Z,7.79
2023-03-06T10:38:10.919Z,7.75
2023-03-06T10:45:58.155Z,7.39
2023-03-06T10:49:46.079Z,7.99
2023-03-06T10:52:36.791Z,7.69
2023-03-06T10:55:42.754Z,7.51
2023-03-06T10:58:41.416Z,7.22
2023-03-06T11:01:27.620Z,7.36
2023-03-06T11:05:00.807Z,7.68
2023-03-06T11:08:36.160Z,7.30
2023-03-06T11:16:54.228Z,7.30
2023-03-06T11:28:32.301Z,7.77
2023-03-06T11:31:31.943Z,7.21
2023-03-06T11:34:40.691Z,7.47
2023-03-06T11:37:16.300Z,6.98
2023-03-06T11:40:32.348Z,7.18
2023-03-06T11:43:17.701Z,7.35
2023-03-06T11:45:57.773Z,7.18
2023-03-06T11:49:15.763Z,7.42
2023-03-06T11:51:54.154Z,7.77
2023-03-06T11:54:23.747Z,7.20
2023-03-06T11:57:39.348Z,6.99
2023-03-06T12:01:19.011Z,6.62
2023-03-06T12:05:19.824Z,6.42
2023-03-06T12:09:34.679Z,6.54
2023-03-06T12:12:39.916Z,6.89
2023-03-06T12:16:45.009Z,6.39
2023-03-06T12:20:09.798Z,6.53
2023-03-06T12:24:33.243Z,6.93
2023-03-06T12:28:13.677Z,7.14
2023-03-06T12:31:56.028Z,6.85
2023-03-06T12:35:55.877Z,6.94
2023-03-06T12:39:46.577Z,7.10
2023-03-06T12:43:40.160Z,7.18
2023-03-06T12:48:04.353Z,7.21
2023-03-06T13:00:23.817Z,7.32
2023-03-06T13:03:29.738Z,6.55
2023-03-06T13:49:46.497Z,6.52
2023-03-06T13:54:07.754Z,5.99
2023-03-06T14:13:45.234Z,5.86
2023-03-06T14:17:14.562Z,6.04
2023-03-06T14:28:30.063Z,6.19
2023-03-06T14:46:47.375Z,6.26
2023-03-06T14:50:58.770Z,6.30
2023-03-06T15:27:34.297Z,6.34
2023-03-06T15:32:03.819Z,6.09
2023-03-06T16:22:16.821Z,5.82
2023-03-06T16:30:11.059Z,6.11
2023-03-06T16:34:06.668Z,5.77
2023-03-06T16:38:01.024Z,5.87
2023-03-06T16:41:50.249Z,5.76
2023-03-06T16:55:19.059Z,5.53
2023-03-06T17:03:09.055Z,5.32
2023-03-06T17:11:45.416Z,5.21
2023-03-06T17:16:05.663Z,5.25
2023-03-06T17:20:40.415Z,5.06
2023-03-06T17:24:32.480Z,4.88
2023-03-06T17:28:18.665Z,5.03
2023-03-06T17:32:15.281Z,4.92
2023-03-06T17:36:12.705Z,4.82
2023-03-06T17:39:46.344Z,4.77
2023-03-06T17:43:44.776Z,4.77
2023-03-06T17:47:35.549Z,4.89
2023-03-06T17:50:40.513Z,4.87
2023-03-06T17:54:24.617Z,4.76
2023-03-06T17:58:38.343Z,4.63
2023-03-06T18:02:25.235Z,4.71
2023-03-06T18:05:55.047Z,4.86
2023-03-06T18:09:47.085Z,4.85
2023-03-06T18:13:39.663Z,4.89
2023-03-06T18:17:58.446Z,4.79
2023-03-06T18:22:33.795Z,4.72
2023-03-06T18:30:19.647Z,4.84
2023-03-06T18:34:34.517Z,4.81
2023-03-06T18:43:12.995Z,4.70
2023-03-06T18:47:28.297Z,4.61
2023-03-06T19:00:38.197Z,4.08
2023-03-06T19:17:04.907Z,3.29
2023-03-06T19:20:52.261Z,3.33
2023-03-06T19:25:02.724Z,3.23
2023-03-06T19:29:03.460Z,3.26
2023-03-06T19:34:03.876Z,3.06
2023-03-06T19:38:00.545Z,3.01
2023-03-06T19:42:41.095Z,2.90
2023-03-06T19:46:58.662Z,2.68
2023-03-06T19:51:30.335Z,2.69
2023-03-06T19:55:19.760Z,2.78
2023-03-06T19:59:00.856Z,2.78
2023-03-06T20:02:13.312Z,2.85
2023-03-06T20:06:50.082Z,2.83
2023-03-06T20:10:56.562Z,2.84
2023-03-06T20:14:26.918Z,2.94
2023-03-06T20:18:45.596Z,2.88
2023-03-06T20:22:36.541Z,2.87
2023-03-06T20:25:59.563Z,2.80
2023-03-06T20:30:22.229Z,2.70
2023-03-06T20:34:42.184Z,2.66
2023-03-06T20:38:56.026Z,2.66
2023-03-06T20:42:49.115Z,2.57
2023-03-06T20:46:02.835Z,2.43
2023-03-06T20:49:55.441Z,2.44
2023-03-06T20:53:46.310Z,2.55
2023-03-06T20:57:36.436Z,2.39
2023-03-06T21:01:08.020Z,2.56
2023-03-06T21:04:21.275Z,2.68
2023-03-06T21:07:40.704Z,2.69
2023-03-06T21:11:28.050Z,2.55
2023-03-06T21:14:59.804Z,2.52
2023-03-06T21:18:49.529Z,2.48
2023-03-06T21:21:48.050Z,2.54
2023-03-06T21:25:23.581Z,2.64
2023-03-06T21:29:57.575Z,2.64
2023-03-06T21:32:32.054Z,2.51
2023-03-06T21:35:33.532Z,2.54
2023-03-06T21:39:02.076Z,2.62
2023-03-06T21:42:18.113Z,2.39
2023-03-06T21:45:34.722Z,2.59
2023-03-06T21:48:27.690Z,2.55
2023-03-06T21:51:29.242Z,2.59
2023-03-06T21:54:27.282Z,2.54
2023-03-06T21:57:43.576Z,2.51
2023-03-06T22:00:49.948Z,2.42
2023-03-06T22:04:19.648Z,2.62
2023-03-06T22:07:52.399Z,2.50
2023-03-06T22:10:51.247Z,2.56
2023-03-06T22:14:49.257Z,2.57
2023-03-06T22:18:21.538Z,2.36
2023-03-06T22:21:23.865Z,2.51
2023-03-06T22:24:19.237Z,2.65
2023-03-06T22:27:27.011Z,2.69
2023-03-06T22:30:42.032Z,2.59
2023-03-06T22:33:22.955Z,2.63
2023-03-06T22:37:08.514Z,2.56
2023-03-06T22:40:48.711Z,2.51
2023-03-06T22:44:00.664Z,2.37
2023-03-06T22:47:38.688Z,2.32
2023-03-06T22:50:30.035Z,2.41
2023-03-06T22:54:50.412Z,2.75
2023-03-06T22:57:25.237Z,2.88
2023-03-06T23:00:56.033Z,2.93
2023-03-06T23:04:29.218Z,2.70
2023-03-06T23:07:45.445Z,2.63
2023-03-06T23:10:44.754Z,2.87
2023-03-06T23:13:42.369Z,2.88
2023-03-06T23:17:21.642Z,2.87
2023-03-06T23:21:00.666Z,3.15
2023-03-06T23:24:21.567Z,2.95
2023-03-06T23:27:19.831Z,3.04
2023-03-06T23:30:19.950Z,2.79
2023-03-06T23:34:24.528Z,2.87
2023-03-06T23:38:13.628Z,2.81
2023-03-06T23:41:29.033Z,2.77
2023-03-06T23:44:52.856Z,2.50
2023-03-06T23:47:54.080Z,2.24
2023-03-06T23:51:39.498Z,2.36
2023-03-06T23:56:08.255Z,2.37
2023-03-06T23:59:13.065Z,2.32
